sensor_id;sensor_type;location;lat;lon;timestamp;temperature;humidity
4757;DHT22;2392;52.578;13.426;2023-11-22T00:01:17;1.70;99.90
4757;DHT22;2392;52.578;13.426;2023-11-22T00:03:45;1.70;99.90
4757;DHT22;2392;52.578;13.426;2023-11-22T00:06:11;1.60;99.90
4757;DHT22;2392;52.578;13.426;2023-11-22T00:08:38;1.70;99.90
4757;DHT22;2392;52.578;13.426;2023-11-22T00:11:04;1.70;99.90
4757;DHT22;2392;52.578;13.426;2023-11-22T00:13:31;1.70;99.90
4757;DHT22;2392;52.578;13.426;2023-11-22T00:15:59;1.70;99.90
4757;DHT22;2392;52.578;13.426;2023-11-22T00:18:26;1.60;99.90
4757;DHT22;2392;52.578;13.426;2023-11-22T00:20:53;1.60;99.90
4757;DHT22;2392;52.578;13.426;2023-11-22T00:23:20;1.60;99.90
4757;DHT22;2392;52.578;13.426;2023-11-22T00:25:47;1.60;99.90
4757;DHT22;2392;52.578;13.426;2023-11-22T00:28:13;1.60;99.90
4757;DHT22;2392;52.578;13.426;2023-11-22T00:30:40;1.60;99.90
4757;DHT22;2392;52.578;13.426;2023-11-22T00:33:08;1.60;99.90
4757;DHT22;2392;52.578;13.426;2023-11-22T00:35:35;1.60;99.90
4757;DHT22;2392;52.578;13.426;2023-11-22T00:38:02;1.60;99.90
4757;DHT22;2392;52.578;13.426;2023-11-22T00:40:28;1.60;99.90
4757;DHT22;2392;52.578;13.426;2023-11-22T00:42:56;1.60;99.90
4757;DHT22;2392;52.578;13.426;2023-11-22T00:45:23;1.60;99.90
4757;DHT22;2392;52.578;13.426;2023-11-22T00:47:50;1.60;99.90
4757;DHT22;2392;52.578;13.426;2023-11-22T00:50:19;1.50;99.90
4757;DHT22;2392;52.578;13.426;2023-11-22T00:52:46;1.50;99.90
4757;DHT22;2392;52.578;13.426;2023-11-22T00:55:13;1.50;99.90
4757;DHT22;2392;52.578;13.426;2023-11-22T00:57:40;1.50;99.90
4757;DHT22;2392;52.578;13.426;2023-11-22T01:00:08;1.40;99.90
4757;DHT22;2392;52.578;13.426;2023-11-22T01:02:38;1.50;99.90
4757;DHT22;2392;52.578;13.426;2023-11-22T01:05:06;1.30;99.90
4757;DHT22;2392;52.578;13.426;2023-11-22T01:07:37;1.30;99.90
4757;DHT22;2392;52.578;13.426;2023-11-22T01:10:05;1.20;99.90
4757;DHT22;2392;52.578;13.426;2023-11-22T01:12:32;1.20;99.90
4757;DHT22;2392;52.578;13.426;2023-11-22T01:14:59;1.20;99.90
4757;DHT22;2392;52.578;13.426;2023-11-22T01:17:26;1.10;99.90
4757;DHT22;2392;52.578;13.426;2023-11-22T01:19:52;1.00;99.90
4757;DHT22;2392;52.578;13.426;2023-11-22T01:22:20;1.00;99.90
4757;DHT22;2392;52.578;13.426;2023-11-22T01:24:48;1.00;99.90
4757;DHT22;2392;52.578;13.426;2023-11-22T01:27:14;0.90;99.90
4757;DHT22;2392;52.578;13.426;2023-11-22T01:29:41;0.90;99.90
4757;DHT22;2392;52.578;13.426;2023-11-22T01:32:08;0.90;99.90
4757;DHT22;2392;52.578;13.426;2023-11-22T01:34:35;0.90;99.90
4757;DHT22;2392;52.578;13.426;2023-11-22T01:37:02;0.80;99.90
4757;DHT22;2392;52.578;13.426;2023-11-22T01:39:30;0.80;99.90
4757;DHT22;2392;52.578;13.426;2023-11-22T01:42:01;0.80;99.90
4757;DHT22;2392;52.578;13.426;2023-11-22T01:44:28;0.80;99.90
4757;DHT22;2392;52.578;13.426;2023-11-22T01:46:54;0.70;99.90
4757;DHT22;2392;52.578;13.426;2023-11-22T01:49:22;0.70;99.90
4757;DHT22;2392;52.578;13.426;2023-11-22T01:51:50;0.70;99.90
4757;DHT22;2392;52.578;13.426;2023-11-22T01:54:18;0.60;99.90
4757;DHT22;2392;52.578;13.426;2023-11-22T01:56:45;0.60;99.90
4757;DHT22;2392;52.578;13.426;2023-11-22T01:59:13;0.60;99.90
4757;DHT22;2392;52.578;13.426;2023-11-22T02:01:42;0.60;99.90
4757;DHT22;2392;52.578;13.426;2023-11-22T02:04:10;0.60;99.90
4757;DHT22;2392;52.578;13.426;2023-11-22T02:06:38;0.50;99.90
4757;DHT22;2392;52.578;13.426;2023-11-22T02:09:05;0.60;99.90
4757;DHT22;2392;52.578;13.426;2023-11-22T02:11:31;0.50;99.90
4757;DHT22;2392;52.578;13.426;2023-11-22T02:13:59;0.60;99.90
4757;DHT22;2392;52.578;13.426;2023-11-22T02:16:27;0.50;99.90
4757;DHT22;2392;52.578;13.426;2023-11-22T02:18:54;0.60;99.90
4757;DHT22;2392;52.578;13.426;2023-11-22T02:21:20;0.50;99.90
4757;DHT22;2392;52.578;13.426;2023-11-22T02:23:49;0.50;99.90
4757;DHT22;2392;52.578;13.426;2023-11-22T02:26:16;0.60;99.90
4757;DHT22;2392;52.578;13.426;2023-11-22T02:28:43;0.50;99.90
4757;DHT22;2392;52.578;13.426;2023-11-22T02:31:10;0.50;99.90
4757;DHT22;2392;52.578;13.426;2023-11-22T02:33:36;0.50;99.90
4757;DHT22;2392;52.578;13.426;2023-11-22T02:36:05;0.50;99.90
4757;DHT22;2392;52.578;13.426;2023-11-22T02:38:33;0.40;99.90
4757;DHT22;2392;52.578;13.426;2023-11-22T02:41:01;0.40;99.90
4757;DHT22;2392;52.578;13.426;2023-11-22T02:43:29;0.40;99.90
4757;DHT22;2392;52.578;13.426;2023-11-22T02:45:56;0.40;99.90
4757;DHT22;2392;52.578;13.426;2023-11-22T02:48:23;0.40;99.90
4757;DHT22;2392;52.578;13.426;2023-11-22T02:50:50;0.30;99.90
4757;DHT22;2392;52.578;13.426;2023-11-22T02:53:19;0.40;99.90
4757;DHT22;2392;52.578;13.426;2023-11-22T02:55:46;0.40;99.90
4757;DHT22;2392;52.578;13.426;2023-11-22T02:58:14;0.30;99.90
4757;DHT22;2392;52.578;13.426;2023-11-22T03:00:41;0.30;99.90
4757;DHT22;2392;52.578;13.426;2023-11-22T03:03:09;0.20;99.90
4757;DHT22;2392;52.578;13.426;2023-11-22T03:05:37;0.20;99.90
4757;DHT22;2392;52.578;13.426;2023-11-22T03:08:03;0.20;99.90
4757;DHT22;2392;52.578;13.426;2023-11-22T03:10:32;0.20;99.90
4757;DHT22;2392;52.578;13.426;2023-11-22T03:12:59;0.10;99.90
4757;DHT22;2392;52.578;13.426;2023-11-22T03:15:27;0.10;99.90
4757;DHT22;2392;52.578;13.426;2023-11-22T03:17:54;0.00;99.90
4757;DHT22;2392;52.578;13.426;2023-11-22T03:20:20;0.00;99.90
4757;DHT22;2392;52.578;13.426;2023-11-22T03:22:47;0.00;99.90
4757;DHT22;2392;52.578;13.426;2023-11-22T03:25:16;0.00;99.90
4757;DHT22;2392;52.578;13.426;2023-11-22T03:27:43;-0.10;99.90
4757;DHT22;2392;52.578;13.426;2023-11-22T03:30:10;-0.10;99.90
4757;DHT22;2392;52.578;13.426;2023-11-22T03:32:39;-0.10;99.90
4757;DHT22;2392;52.578;13.426;2023-11-22T03:35:07;-0.10;99.90
4757;DHT22;2392;52.578;13.426;2023-11-22T03:37:34;-0.10;99.90
4757;DHT22;2392;52.578;13.426;2023-11-22T03:40:01;-0.10;99.90
4757;DHT22;2392;52.578;13.426;2023-11-22T03:42:28;-0.10;99.90
4757;DHT22;2392;52.578;13.426;2023-11-22T03:44:55;-0.10;99.90
4757;DHT22;2392;52.578;13.426;2023-11-22T03:47:24;-0.10;99.90
4757;DHT22;2392;52.578;13.426;2023-11-22T03:49:52;-0.10;99.90
4757;DHT22;2392;52.578;13.426;2023-11-22T03:52:18;-0.10;99.90
4757;DHT22;2392;52.578;13.426;2023-11-22T03:54:45;-0.20;99.90
4757;DHT22;2392;52.578;13.426;2023-11-22T03:57:12;-0.20;99.90
4757;DHT22;2392;52.578;13.426;2023-11-22T03:59:40;-0.30;99.90
4757;DHT22;2392;52.578;13.426;2023-11-22T04:02:08;-0.30;99.90
4757;DHT22;2392;52.578;13.426;2023-11-22T04:04:35;-0.30;99.90
4757;DHT22;2392;52.578;13.426;2023-11-22T04:07:03;-0.30;99.90
4757;DHT22;2392;52.578;13.426;2023-11-22T04:09:30;-0.30;99.90
4757;DHT22;2392;52.578;13.426;2023-11-22T04:11:57;-0.30;99.90
4757;DHT22;2392;52.578;13.426;2023-11-22T04:14:23;-0.30;99.90
4757;DHT22;2392;52.578;13.426;2023-11-22T04:16:52;-0.30;99.90
4757;DHT22;2392;52.578;13.426;2023-11-22T04:19:19;-0.30;99.90
4757;DHT22;2392;52.578;13.426;2023-11-22T04:21:46;-0.40;99.90
4757;DHT22;2392;52.578;13.426;2023-11-22T04:24:14;-0.40;99.90
4757;DHT22;2392;52.578;13.426;2023-11-22T04:26:40;-0.40;99.90
4757;DHT22;2392;52.578;13.426;2023-11-22T04:29:07;-0.40;99.90
4757;DHT22;2392;52.578;13.426;2023-11-22T04:31:34;-0.40;99.90
4757;DHT22;2392;52.578;13.426;2023-11-22T04:34:00;-0.40;99.90
4757;DHT22;2392;52.578;13.426;2023-11-22T04:36:27;-0.40;99.90
4757;DHT22;2392;52.578;13.426;2023-11-22T04:38:55;-0.40;99.90
4757;DHT22;2392;52.578;13.426;2023-11-22T04:41:23;-0.40;99.90
4757;DHT22;2392;52.578;13.426;2023-11-22T04:43:51;-0.40;99.90
4757;DHT22;2392;52.578;13.426;2023-11-22T04:46:18;-0.40;99.90
4757;DHT22;2392;52.578;13.426;2023-11-22T04:48:45;-0.40;99.90
4757;DHT22;2392;52.578;13.426;2023-11-22T04:51:16;-0.40;99.90
4757;DHT22;2392;52.578;13.426;2023-11-22T04:53:44;-0.50;99.90
4757;DHT22;2392;52.578;13.426;2023-11-22T04:56:10;-0.50;99.90
4757;DHT22;2392;52.578;13.426;2023-11-22T04:58:38;-0.50;99.90
4757;DHT22;2392;52.578;13.426;2023-11-22T05:01:05;-0.50;99.90
4757;DHT22;2392;52.578;13.426;2023-11-22T05:03:31;-0.50;99.90
4757;DHT22;2392;52.578;13.426;2023-11-22T05:05:58;-0.50;99.90
4757;DHT22;2392;52.578;13.426;2023-11-22T05:08:25;-0.50;99.90
4757;DHT22;2392;52.578;13.426;2023-11-22T05:10:52;-0.50;99.90
4757;DHT22;2392;52.578;13.426;2023-11-22T05:13:20;-0.50;99.90
4757;DHT22;2392;52.578;13.426;2023-11-22T05:15:48;-0.50;99.90
4757;DHT22;2392;52.578;13.426;2023-11-22T05:18:15;-0.60;99.90
4757;DHT22;2392;52.578;13.426;2023-11-22T05:20:42;-0.60;99.90
4757;DHT22;2392;52.578;13.426;2023-11-22T05:23:09;-0.60;99.90
4757;DHT22;2392;52.578;13.426;2023-11-22T05:25:36;-0.60;99.90
4757;DHT22;2392;52.578;13.426;2023-11-22T05:28:03;-0.60;99.90
4757;DHT22;2392;52.578;13.426;2023-11-22T05:30:30;-0.60;99.90
4757;DHT22;2392;52.578;13.426;2023-11-22T05:32:58;-0.60;99.90
4757;DHT22;2392;52.578;13.426;2023-11-22T05:35:25;-0.60;99.90
4757;DHT22;2392;52.578;13.426;2023-11-22T05:37:51;-0.60;99.90
4757;DHT22;2392;52.578;13.426;2023-11-22T05:40:18;-0.70;99.90
4757;DHT22;2392;52.578;13.426;2023-11-22T05:42:45;-0.60;99.90
4757;DHT22;2392;52.578;13.426;2023-11-22T05:45:12;-0.70;99.90
4757;DHT22;2392;52.578;13.426;2023-11-22T05:47:38;-0.70;99.90
4757;DHT22;2392;52.578;13.426;2023-11-22T05:50:08;-0.70;99.90
4757;DHT22;2392;52.578;13.426;2023-11-22T05:52:35;-0.70;99.90
4757;DHT22;2392;52.578;13.426;2023-11-22T05:55:02;-0.80;99.90
4757;DHT22;2392;52.578;13.426;2023-11-22T05:57:29;-0.80;99.90
4757;DHT22;2392;52.578;13.426;2023-11-22T05:59:56;-0.80;99.90
4757;DHT22;2392;52.578;13.426;2023-11-22T06:02:23;-0.80;99.90
4757;DHT22;2392;52.578;13.426;2023-11-22T06:04:50;-0.80;99.90
4757;DHT22;2392;52.578;13.426;2023-11-22T06:07:17;-0.80;99.90
4757;DHT22;2392;52.578;13.426;2023-11-22T06:09:44;-0.90;99.90
4757;DHT22;2392;52.578;13.426;2023-11-22T06:12:11;-0.90;99.90
4757;DHT22;2392;52.578;13.426;2023-11-22T06:14:37;-0.90;99.90
4757;DHT22;2392;52.578;13.426;2023-11-22T06:17:04;-0.90;99.90
4757;DHT22;2392;52.578;13.426;2023-11-22T06:19:31;-0.90;99.90
4757;DHT22;2392;52.578;13.426;2023-11-22T06:21:58;-1.00;99.90
4757;DHT22;2392;52.578;13.426;2023-11-22T06:24:27;-1.00;99.90
4757;DHT22;2392;52.578;13.426;2023-11-22T06:26:54;-1.00;99.90
4757;DHT22;2392;52.578;13.426;2023-11-22T06:29:20;-1.00;99.90
4757;DHT22;2392;52.578;13.426;2023-11-22T06:31:47;-1.00;99.90
4757;DHT22;2392;52.578;13.426;2023-11-22T06:34:14;-1.00;99.90
4757;DHT22;2392;52.578;13.426;2023-11-22T06:36:40;-1.00;99.90
4757;DHT22;2392;52.578;13.426;2023-11-22T06:39:07;-1.00;99.90
4757;DHT22;2392;52.578;13.426;2023-11-22T06:41:36;-1.10;99.90
4757;DHT22;2392;52.578;13.426;2023-11-22T06:44:02;-1.10;99.90
4757;DHT22;2392;52.578;13.426;2023-11-22T06:46:29;-1.10;99.90
4757;DHT22;2392;52.578;13.426;2023-11-22T06:48:56;-1.10;99.90
4757;DHT22;2392;52.578;13.426;2023-11-22T06:51:22;-1.20;99.90
4757;DHT22;2392;52.578;13.426;2023-11-22T06:53:49;-1.20;99.90
4757;DHT22;2392;52.578;13.426;2023-11-22T06:56:17;-1.10;99.90
4757;DHT22;2392;52.578;13.426;2023-11-22T06:58:45;-1.20;99.90
4757;DHT22;2392;52.578;13.426;2023-11-22T07:01:12;-1.20;99.90
4757;DHT22;2392;52.578;13.426;2023-11-22T07:03:39;-1.10;99.90
4757;DHT22;2392;52.578;13.426;2023-11-22T07:06:05;-1.10;99.90
4757;DHT22;2392;52.578;13.426;2023-11-22T07:08:33;-1.10;99.90
4757;DHT22;2392;52.578;13.426;2023-11-22T07:11:01;-1.10;99.90
4757;DHT22;2392;52.578;13.426;2023-11-22T07:13:29;-1.10;99.90
4757;DHT22;2392;52.578;13.426;2023-11-22T07:15:57;-1.10;99.90
4757;DHT22;2392;52.578;13.426;2023-11-22T07:18:23;-1.10;99.90
4757;DHT22;2392;52.578;13.426;2023-11-22T07:20:50;-1.10;99.90
4757;DHT22;2392;52.578;13.426;2023-11-22T07:23:19;-1.00;99.90
4757;DHT22;2392;52.578;13.426;2023-11-22T07:25:46;-1.00;99.90
4757;DHT22;2392;52.578;13.426;2023-11-22T07:28:13;-1.00;99.90
4757;DHT22;2392;52.578;13.426;2023-11-22T07:30:40;-1.00;99.90
4757;DHT22;2392;52.578;13.426;2023-11-22T07:33:08;-0.90;99.90
4757;DHT22;2392;52.578;13.426;2023-11-22T07:35:35;-0.90;99.90
4757;DHT22;2392;52.578;13.426;2023-11-22T07:38:02;-0.90;99.90
4757;DHT22;2392;52.578;13.426;2023-11-22T07:40:29;-0.90;99.90
4757;DHT22;2392;52.578;13.426;2023-11-22T07:42:56;-0.80;99.90
4757;DHT22;2392;52.578;13.426;2023-11-22T07:45:22;-0.80;99.90
4757;DHT22;2392;52.578;13.426;2023-11-22T07:47:49;-0.80;99.90
4757;DHT22;2392;52.578;13.426;2023-11-22T07:50:20;-0.70;99.90
4757;DHT22;2392;52.578;13.426;2023-11-22T07:52:47;-0.70;99.90
4757;DHT22;2392;52.578;13.426;2023-11-22T07:55:14;-0.70;99.90
4757;DHT22;2392;52.578;13.426;2023-11-22T07:57:43;-0.60;99.90
4757;DHT22;2392;52.578;13.426;2023-11-22T08:00:11;-0.60;99.90
4757;DHT22;2392;52.578;13.426;2023-11-22T08:02:38;-0.50;99.90
4757;DHT22;2392;52.578;13.426;2023-11-22T08:05:05;-0.50;99.90
4757;DHT22;2392;52.578;13.426;2023-11-22T08:07:35;-0.50;99.90
4757;DHT22;2392;52.578;13.426;2023-11-22T08:10:04;-0.40;99.90
4757;DHT22;2392;52.578;13.426;2023-11-22T08:12:35;-0.40;99.90
4757;DHT22;2392;52.578;13.426;2023-11-22T08:15:03;-0.30;99.90
4757;DHT22;2392;52.578;13.426;2023-11-22T08:17:29;-0.30;99.90
4757;DHT22;2392;52.578;13.426;2023-11-22T08:19:58;-0.30;99.90
4757;DHT22;2392;52.578;13.426;2023-11-22T08:22:24;-0.20;99.90
4757;DHT22;2392;52.578;13.426;2023-11-22T08:24:55;-0.20;99.90
4757;DHT22;2392;52.578;13.426;2023-11-22T08:27:23;-0.10;99.90
4757;DHT22;2392;52.578;13.426;2023-11-22T08:29:49;-0.10;99.90
4757;DHT22;2392;52.578;13.426;2023-11-22T08:32:16;0.00;99.90
4757;DHT22;2392;52.578;13.426;2023-11-22T08:34:46;0.00;99.90
4757;DHT22;2392;52.578;13.426;2023-11-22T08:37:12;0.10;99.90
4757;DHT22;2392;52.578;13.426;2023-11-22T08:39:39;0.10;99.90
4757;DHT22;2392;52.578;13.426;2023-11-22T08:42:07;0.10;99.90
4757;DHT22;2392;52.578;13.426;2023-11-22T08:44:35;0.20;99.90
4757;DHT22;2392;52.578;13.426;2023-11-22T08:47:01;0.20;99.90
4757;DHT22;2392;52.578;13.426;2023-11-22T08:49:28;0.30;99.90
4757;DHT22;2392;52.578;13.426;2023-11-22T08:51:56;0.30;99.90
4757;DHT22;2392;52.578;13.426;2023-11-22T08:54:24;0.30;99.90
4757;DHT22;2392;52.578;13.426;2023-11-22T08:56:54;0.20;99.90
4757;DHT22;2392;52.578;13.426;2023-11-22T08:59:24;0.30;99.90
4757;DHT22;2392;52.578;13.426;2023-11-22T09:01:50;0.30;99.90
4757;DHT22;2392;52.578;13.426;2023-11-22T09:04:17;0.40;99.90
4757;DHT22;2392;52.578;13.426;2023-11-22T09:06:44;0.40;99.90
4757;DHT22;2392;52.578;13.426;2023-11-22T09:09:12;0.40;99.90
4757;DHT22;2392;52.578;13.426;2023-11-22T09:11:41;0.50;99.90
4757;DHT22;2392;52.578;13.426;2023-11-22T09:14:07;0.60;99.90
4757;DHT22;2392;52.578;13.426;2023-11-22T09:16:37;0.70;99.90
4757;DHT22;2392;52.578;13.426;2023-11-22T09:19:04;0.80;99.90
4757;DHT22;2392;52.578;13.426;2023-11-22T09:21:31;0.90;99.90
4757;DHT22;2392;52.578;13.426;2023-11-22T09:23:58;1.00;99.90
4757;DHT22;2392;52.578;13.426;2023-11-22T09:26:25;1.20;99.90
4757;DHT22;2392;52.578;13.426;2023-11-22T09:28:52;1.40;99.90
4757;DHT22;2392;52.578;13.426;2023-11-22T09:31:19;1.50;99.90
4757;DHT22;2392;52.578;13.426;2023-11-22T09:33:47;1.60;99.90
4757;DHT22;2392;52.578;13.426;2023-11-22T09:36:15;1.80;99.90
4757;DHT22;2392;52.578;13.426;2023-11-22T09:38:43;2.00;99.90
4757;DHT22;2392;52.578;13.426;2023-11-22T09:41:10;2.10;99.90
4757;DHT22;2392;52.578;13.426;2023-11-22T09:43:37;2.30;99.90
4757;DHT22;2392;52.578;13.426;2023-11-22T09:46:06;2.30;99.90
4757;DHT22;2392;52.578;13.426;2023-11-22T09:48:37;2.50;99.90
4757;DHT22;2392;52.578;13.426;2023-11-22T09:51:23;2.60;99.90
4757;DHT22;2392;52.578;13.426;2023-11-22T09:53:53;2.70;99.90
4757;DHT22;2392;52.578;13.426;2023-11-22T09:56:23;2.70;99.90
4757;DHT22;2392;52.578;13.426;2023-11-22T09:58:52;2.70;99.90
4757;DHT22;2392;52.578;13.426;2023-11-22T10:01:22;2.90;99.90
4757;DHT22;2392;52.578;13.426;2023-11-22T10:03:49;3.10;99.90
4757;DHT22;2392;52.578;13.426;2023-11-22T10:06:17;3.50;99.90
4757;DHT22;2392;52.578;13.426;2023-11-22T10:08:44;4.20;99.90
4757;DHT22;2392;52.578;13.426;2023-11-22T10:11:15;4.80;99.90
4757;DHT22;2392;52.578;13.426;2023-11-22T10:13:43;5.60;99.90
4757;DHT22;2392;52.578;13.426;2023-11-22T10:16:12;6.10;99.90
4757;DHT22;2392;52.578;13.426;2023-11-22T10:18:42;6.80;99.90
4757;DHT22;2392;52.578;13.426;2023-11-22T10:21:23;7.40;99.90
4757;DHT22;2392;52.578;13.426;2023-11-22T10:23:51;7.90;99.90
4757;DHT22;2392;52.578;13.426;2023-11-22T10:26:19;8.40;99.90
4757;DHT22;2392;52.578;13.426;2023-11-22T10:28:46;8.70;99.90
4757;DHT22;2392;52.578;13.426;2023-11-22T10:31:16;9.00;99.90
4757;DHT22;2392;52.578;13.426;2023-11-22T10:33:43;9.10;99.90
4757;DHT22;2392;52.578;13.426;2023-11-22T10:36:10;9.10;99.90
4757;DHT22;2392;52.578;13.426;2023-11-22T10:38:39;8.80;99.90
4757;DHT22;2392;52.578;13.426;2023-11-22T10:41:07;9.00;99.90
4757;DHT22;2392;52.578;13.426;2023-11-22T10:43:34;9.10;99.90
4757;DHT22;2392;52.578;13.426;2023-11-22T10:46:02;8.70;99.90
4757;DHT22;2392;52.578;13.426;2023-11-22T10:48:30;8.50;99.90
4757;DHT22;2392;52.578;13.426;2023-11-22T10:51:00;8.50;99.90
4757;DHT22;2392;52.578;13.426;2023-11-22T10:53:32;8.90;99.90
4757;DHT22;2392;52.578;13.426;2023-11-22T10:56:10;9.10;99.90
4757;DHT22;2392;52.578;13.426;2023-11-22T10:58:43;9.40;99.90
4757;DHT22;2392;52.578;13.426;2023-11-22T11:01:12;9.60;99.90
4757;DHT22;2392;52.578;13.426;2023-11-22T11:03:44;9.70;99.90
4757;DHT22;2392;52.578;13.426;2023-11-22T11:06:15;10.20;99.90
4757;DHT22;2392;52.578;13.426;2023-11-22T11:08:47;10.20;99.90
4757;DHT22;2392;52.578;13.426;2023-11-22T11:11:17;10.30;99.90
4757;DHT22;2392;52.578;13.426;2023-11-22T11:13:44;10.50;99.90
4757;DHT22;2392;52.578;13.426;2023-11-22T11:16:12;10.50;99.90
4757;DHT22;2392;52.578;13.426;2023-11-22T11:18:39;10.60;99.90
4757;DHT22;2392;52.578;13.426;2023-11-22T11:21:08;10.70;99.10
4757;DHT22;2392;52.578;13.426;2023-11-22T11:23:39;10.80;99.80
4757;DHT22;2392;52.578;13.426;2023-11-22T11:26:14;10.90;98.60
4757;DHT22;2392;52.578;13.426;2023-11-22T11:28:44;10.90;99.00
4757;DHT22;2392;52.578;13.426;2023-11-22T11:31:11;10.90;98.50
4757;DHT22;2392;52.578;13.426;2023-11-22T11:33:53;10.80;98.80
4757;DHT22;2392;52.578;13.426;2023-11-22T11:36:22;10.50;98.80
4757;DHT22;2392;52.578;13.426;2023-11-22T11:38:51;10.40;99.20
4757;DHT22;2392;52.578;13.426;2023-11-22T11:41:18;10.60;99.20
4757;DHT22;2392;52.578;13.426;2023-11-22T11:43:48;10.70;98.20
4757;DHT22;2392;52.578;13.426;2023-11-22T11:46:16;11.20;98.90
4757;DHT22;2392;52.578;13.426;2023-11-22T11:48:43;11.60;98.20
4757;DHT22;2392;52.578;13.426;2023-11-22T11:51:13;11.90;98.10
4757;DHT22;2392;52.578;13.426;2023-11-22T11:53:40;12.30;97.40
4757;DHT22;2392;52.578;13.426;2023-11-22T11:56:07;12.60;97.10
4757;DHT22;2392;52.578;13.426;2023-11-22T11:58:34;12.80;96.90
4757;DHT22;2392;52.578;13.426;2023-11-22T12:01:03;13.10;96.00
4757;DHT22;2392;52.578;13.426;2023-11-22T12:03:29;12.70;95.60
4757;DHT22;2392;52.578;13.426;2023-11-22T12:05:56;12.80;95.50
4757;DHT22;2392;52.578;13.426;2023-11-22T12:08:23;12.70;94.90
4757;DHT22;2392;52.578;13.426;2023-11-22T12:10:49;12.40;95.00
4757;DHT22;2392;52.578;13.426;2023-11-22T12:13:17;11.90;94.80
4757;DHT22;2392;52.578;13.426;2023-11-22T12:15:44;11.30;94.90
4757;DHT22;2392;52.578;13.426;2023-11-22T12:18:12;10.60;94.90
4757;DHT22;2392;52.578;13.426;2023-11-22T12:20:39;10.20;95.30
4757;DHT22;2392;52.578;13.426;2023-11-22T12:23:06;9.60;96.40
4757;DHT22;2392;52.578;13.426;2023-11-22T12:25:33;8.80;95.60
4757;DHT22;2392;52.578;13.426;2023-11-22T12:28:02;8.00;96.00
4757;DHT22;2392;52.578;13.426;2023-11-22T12:30:30;7.40;96.70
4757;DHT22;2392;52.578;13.426;2023-11-22T12:33:00;7.00;96.70
4757;DHT22;2392;52.578;13.426;2023-11-22T12:35:30;6.50;96.70
4757;DHT22;2392;52.578;13.426;2023-11-22T12:37:58;6.20;97.10
4757;DHT22;2392;52.578;13.426;2023-11-22T12:40:24;6.00;97.60
4757;DHT22;2392;52.578;13.426;2023-11-22T12:42:53;5.90;98.30
4757;DHT22;2392;52.578;13.426;2023-11-22T12:45:21;5.80;98.10
4757;DHT22;2392;52.578;13.426;2023-11-22T12:47:49;5.70;98.00
4757;DHT22;2392;52.578;13.426;2023-11-22T12:50:34;5.60;98.00
4757;DHT22;2392;52.578;13.426;2023-11-22T12:53:10;5.60;98.90
4757;DHT22;2392;52.578;13.426;2023-11-22T12:55:38;5.50;98.40
4757;DHT22;2392;52.578;13.426;2023-11-22T12:58:05;5.60;98.30
4757;DHT22;2392;52.578;13.426;2023-11-22T13:00:33;5.60;98.30
4757;DHT22;2392;52.578;13.426;2023-11-22T13:03:00;5.50;98.50
4757;DHT22;2392;52.578;13.426;2023-11-22T13:05:26;5.40;98.00
4757;DHT22;2392;52.578;13.426;2023-11-22T13:07:54;5.40;98.70
4757;DHT22;2392;52.578;13.426;2023-11-22T13:10:21;5.40;97.60
4757;DHT22;2392;52.578;13.426;2023-11-22T13:12:54;5.30;97.50
4757;DHT22;2392;52.578;13.426;2023-11-22T13:15:21;5.30;97.80
4757;DHT22;2392;52.578;13.426;2023-11-22T13:17:49;5.20;98.10
4757;DHT22;2392;52.578;13.426;2023-11-22T13:20:16;5.20;98.50
4757;DHT22;2392;52.578;13.426;2023-11-22T13:22:45;5.20;99.20
4757;DHT22;2392;52.578;13.426;2023-11-22T13:25:14;5.30;99.30
4757;DHT22;2392;52.578;13.426;2023-11-22T13:27:42;5.30;99.70
4757;DHT22;2392;52.578;13.426;2023-11-22T13:30:09;5.20;99.30
4757;DHT22;2392;52.578;13.426;2023-11-22T13:32:37;5.20;99.40
4757;DHT22;2392;52.578;13.426;2023-11-22T13:35:07;5.20;99.60
4757;DHT22;2392;52.578;13.426;2023-11-22T13:37:40;5.10;99.50
4757;DHT22;2392;52.578;13.426;2023-11-22T13:40:09;5.10;99.80
4757;DHT22;2392;52.578;13.426;2023-11-22T13:42:44;5.00;99.50
4757;DHT22;2392;52.578;13.426;2023-11-22T13:45:11;5.00;99.90
4757;DHT22;2392;52.578;13.426;2023-11-22T13:47:42;4.90;99.50
4757;DHT22;2392;52.578;13.426;2023-11-22T13:50:09;5.00;99.80
4757;DHT22;2392;52.578;13.426;2023-11-22T13:52:37;4.90;98.60
4757;DHT22;2392;52.578;13.426;2023-11-22T13:55:04;4.80;98.80
4757;DHT22;2392;52.578;13.426;2023-11-22T13:57:35;4.70;98.90
4757;DHT22;2392;52.578;13.426;2023-11-22T14:00:04;4.60;99.20
4757;DHT22;2392;52.578;13.426;2023-11-22T14:02:34;4.50;98.90
4757;DHT22;2392;52.578;13.426;2023-11-22T14:05:02;4.50;98.20
4757;DHT22;2392;52.578;13.426;2023-11-22T14:07:33;4.40;97.90
4757;DHT22;2392;52.578;13.426;2023-11-22T14:10:00;4.30;97.70
4757;DHT22;2392;52.578;13.426;2023-11-22T14:12:28;4.30;97.80
4757;DHT22;2392;52.578;13.426;2023-11-22T14:14:55;4.20;97.90
4757;DHT22;2392;52.578;13.426;2023-11-22T14:17:23;4.20;97.50
4757;DHT22;2392;52.578;13.426;2023-11-22T14:19:50;4.20;97.70
4757;DHT22;2392;52.578;13.426;2023-11-22T14:22:16;4.20;98.20
4757;DHT22;2392;52.578;13.426;2023-11-22T14:24:43;4.10;98.10
4757;DHT22;2392;52.578;13.426;2023-11-22T14:27:10;4.10;97.90
4757;DHT22;2392;52.578;13.426;2023-11-22T14:29:37;4.10;98.20
4757;DHT22;2392;52.578;13.426;2023-11-22T14:32:04;4.10;98.70
4757;DHT22;2392;52.578;13.426;2023-11-22T14:34:33;4.00;98.60
4757;DHT22;2392;52.578;13.426;2023-11-22T14:37:00;4.00;98.70
4757;DHT22;2392;52.578;13.426;2023-11-22T14:39:27;3.90;99.10
4757;DHT22;2392;52.578;13.426;2023-11-22T14:41:55;4.00;99.10
4757;DHT22;2392;52.578;13.426;2023-11-22T14:44:22;3.80;99.20
4757;DHT22;2392;52.578;13.426;2023-11-22T14:46:48;3.70;99.40
4757;DHT22;2392;52.578;13.426;2023-11-22T14:49:15;3.70;99.70
4757;DHT22;2392;52.578;13.426;2023-11-22T14:51:43;3.60;99.90
4757;DHT22;2392;52.578;13.426;2023-11-22T14:54:10;3.50;99.90
4757;DHT22;2392;52.578;13.426;2023-11-22T14:56:37;3.50;99.90
4757;DHT22;2392;52.578;13.426;2023-11-22T14:59:04;3.40;99.90
4757;DHT22;2392;52.578;13.426;2023-11-22T15:01:31;3.40;99.90
4757;DHT22;2392;52.578;13.426;2023-11-22T15:03:58;3.40;99.90
4757;DHT22;2392;52.578;13.426;2023-11-22T15:06:25;3.30;99.90
4757;DHT22;2392;52.578;13.426;2023-11-22T15:08:53;3.30;99.90
4757;DHT22;2392;52.578;13.426;2023-11-22T15:11:20;3.20;99.90
4757;DHT22;2392;52.578;13.426;2023-11-22T15:13:47;3.20;99.90
4757;DHT22;2392;52.578;13.426;2023-11-22T15:16:13;3.10;99.90
4757;DHT22;2392;52.578;13.426;2023-11-22T15:18:41;3.10;99.90
4757;DHT22;2392;52.578;13.426;2023-11-22T15:21:08;3.10;99.90
4757;DHT22;2392;52.578;13.426;2023-11-22T15:23:34;3.00;99.90
4757;DHT22;2392;52.578;13.426;2023-11-22T15:26:03;3.00;99.90
4757;DHT22;2392;52.578;13.426;2023-11-22T15:28:29;2.90;99.90
4757;DHT22;2392;52.578;13.426;2023-11-22T15:30:56;2.90;99.90
4757;DHT22;2392;52.578;13.426;2023-11-22T15:33:25;2.90;99.90
4757;DHT22;2392;52.578;13.426;2023-11-22T15:35:52;2.90;99.90
4757;DHT22;2392;52.578;13.426;2023-11-22T15:38:20;2.90;99.90
4757;DHT22;2392;52.578;13.426;2023-11-22T15:40:48;2.90;99.90
4757;DHT22;2392;52.578;13.426;2023-11-22T15:43:18;2.90;99.90
4757;DHT22;2392;52.578;13.426;2023-11-22T15:45:45;2.90;99.90
4757;DHT22;2392;52.578;13.426;2023-11-22T15:48:12;2.90;99.90
4757;DHT22;2392;52.578;13.426;2023-11-22T15:50:40;2.90;99.90
4757;DHT22;2392;52.578;13.426;2023-11-22T15:53:07;2.90;99.90
4757;DHT22;2392;52.578;13.426;2023-11-22T15:55:38;2.90;99.90
4757;DHT22;2392;52.578;13.426;2023-11-22T15:58:05;2.90;99.90